Terminal Aerodrome Forecast
Issued by NWS

Current Version | Previous Version | Text Only | Print | Product List | Glossary On
Versions: 1 2 3 4 5 6 7 8 9 10 11 12 13 14 15 16 17 18 19 20 21 22 23 24 25 26 27 28 29 30 31
000
FTUS46 KSEW 290311 AAA
TAFSEA
TAF AMD
KSEA 290311Z 2903/3006 29005KT P6SM BKN060 BKN200
     FM290700 17004KT P6SM BKN050 BKN200
     FM291200 20006KT P6SM SCT050 SCT150 BKN200
     FM291900 21009KT P6SM SCT050 BKN150 OVC200
     FM300200 22010KT P6SM -RA BKN050 OVC080=

USA.gov is the U.S. government's official web portal to all federal, state and local government web resources and services.